Reno (UNR), Valley Road, Nevada Weather observations

Data are for observation ending at time listed.
 Day   Time    Ave.   Ave.  Ave.  Vector   Max.    Total    Solar   Rl      Baro.   Ave.  
  of    of     Air    Rel.  Wind   Wind    Wind   Precip.   Rad.    in      Pres.   Soil  
Year   Day     Temp.  Hum.  Speed  Dir.    Gust                                     Temp. 
2026   (PST)    F      %     mph   deg.    mph      in.     W/m2    W/m2     mb.     F   
-----------------------------------------------------------------------------------------
 125    2:00   47.3    81    3.1   252      6.0     0.00       0     358    858.3   57.4
 125    2:10   47.5    81    3.6   224      6.8     0.00       0     358    858.1   57.4
 125    2:20   47.5    81    3.0   210      7.1     0.00       0     358    858.2   57.3
 125    2:30   47.5    81    2.5   219      3.9     0.00       0     358    858.1   57.2
 125    2:40   47.6    83    2.3   231      3.9     0.00       0     358    858.1   57.2
 125    2:50   47.6    81    2.2   264      4.3     0.00       0     359    858.0   57.1
 125    3:00   47.6    82    3.2   244      4.7     0.00       0     359    858.0   57.1
 125    3:10   47.5    83    2.3   256      4.3     0.00       0     359    857.9   57.0
 125    3:20   47.6    82    2.3   290      5.6     0.00       0     359    857.9   57.0
 125    3:30   47.7    82    2.6   288      5.0     0.00       0     360    857.9   56.9
 125    3:40   47.7    81    2.7   295      5.0     0.00       0     360    857.8   56.9
 125    3:50   47.7    82    2.4   288      3.6     0.00       0     360    858.0   56.9
 125    4:00   47.7    83    2.2   296      3.0     0.00       0     359    857.8   56.8
 125    4:10   47.8    83    0.9   272      2.2     0.00       0     359    858.0   56.8
 125    4:20   47.8    84    1.6    61      3.3     0.00       0     359    857.9   56.7
 125    4:30   47.9    84    1.9    70      3.3     0.00       0     360    858.0   56.7
 125    4:40   47.9    83    1.8    16      4.2     0.00       0     360    857.9   56.7
 125    4:50   48.0    82    3.5   309      6.9     0.00       0     360    858.0   56.6
 125    5:00   48.1    82    2.2   311      4.9     0.00       1     361    858.0   56.6
 125    5:10   47.9    82    3.3   232      6.5     0.00       3     360    858.0   56.6
 125    5:20   47.9    82    3.6   227      5.8     0.00       6     360    858.1   56.5
 125    5:30   48.0    82    2.8   214      5.1     0.00       9     361    858.1   56.5
 125    5:40   48.2    81    2.0   188      4.5     0.00      18     362    858.3   56.5
 125    5:50   48.5    81    2.3   196      4.6     0.00      29     362    858.2   56.4
 125    6:00   48.8    81    2.1   143      4.0     0.00      36     362    858.5   56.4
 125    6:10   49.0    82    3.0   119      4.6     0.00      43     361    858.6   56.4
 125    6:20   49.2    82    2.2   124      4.2     0.00      49     361    858.8   56.4
 125    6:30   49.3    81    2.5   176      4.5     0.00      47     360    858.8   56.4
 125    6:40   49.2    81    3.0   199      5.1     0.00      52     360    858.9   56.3
 125    6:50   49.3    82    2.8   222      4.2     0.00      72     359    859.0   56.3
 125    7:00   49.6    81    2.3   203      3.9     0.00      84     361    859.0   56.3
 125    7:10   49.8    80    1.8   255      3.3     0.00      85     362    859.2   56.3
 125    7:20   49.9    80    1.2   300      2.3     0.00     107     364    859.1   56.3
 125    7:30   50.3    79    2.1   266      3.3     0.00     120     365    859.3   56.3
 125    7:40   50.8    79    1.5   242      2.9     0.00     120     366    859.3   56.3
 125    7:50   51.0    77    1.4   296      2.3     0.00     134     364    859.4   56.3
 125    8:00   51.5    77    0.7   129      2.8     0.00     143     364    859.4   56.3
 125    8:10   52.3    76    2.3   131      4.5     0.00     176     366    859.6   56.4
 125    8:20   53.0    75    1.7   130      3.6     0.00     216     369    859.7   56.4
 125    8:30   53.5    73    1.0   359      3.4     0.00     244     368    859.8   56.4
 125    8:40   53.5    73    1.7    65      3.4     0.00     317     366    859.9   56.5
 125    8:50   54.8    72    3.0   155      6.9     0.00     409     366    859.9   56.6
 125    9:00   56.2    69    2.7   190      5.4     0.00     451     361    859.9   56.6
 125    9:10   57.3    68    2.7   166      5.8     0.00     615     349    859.9   56.7
 125    9:20   59.1    66    4.6   130      8.5     0.01     797     370    859.9   56.8
 125    9:30   58.3    67    5.8   129      9.2     0.00     463     380    859.8   56.9
 125    9:40   57.3    69    6.1   155      9.6     0.00     397     379    859.9   57.1
 125    9:50   57.7    68    5.0   148      7.6     0.00     376     382    860.0   57.3
 125   10:00   58.6    67    4.0   116      6.9     0.00     524     382    860.1   57.4
 125   10:10   58.6    66    3.0   112      8.1     0.00     473     384    860.2   57.6
 125   10:20   59.5    65    2.3   119      6.0     0.00     493     383    860.2   57.8
 125   10:30   60.3    62    2.5   114      5.9     0.00     589     382    860.2   58.0
 125   10:40   59.5    64    3.3   263      7.5     0.00     655     366    860.2   58.2
 125   10:50   60.0    64    3.8   253      7.2     0.00     683     352    860.2   58.3
 125   11:00   58.9    64    4.1   326      9.0     0.00     862     345    860.1   58.5
 125   11:10   61.5    60    3.0    59      6.2     0.00    1060     357    860.1   58.8
 125   11:20   62.0    59    2.4    74      5.2     0.00     817     363    860.1   59.0
 125   11:30   62.8    59    4.8    84      9.0     0.00    1125     369    860.1   59.3
 125   11:40   64.7    55    3.7   105      9.3     0.00    1065     378    860.1   59.6
 125   11:50   63.8    55    1.8    53      5.2     0.00     701     376    860.0   59.9
 125   12:00   65.7    53    2.5    65      7.3     0.00    1085     369    859.9   60.3
 125   12:10   64.3    53    4.8    35      9.7     0.00    1081     366    859.8   60.7
 125   12:20   64.6    52    4.1    42     10.5     0.00    1092     364    859.8   61.1
 125   12:30   66.6    50    4.6   128     11.2     0.00    1092     369    859.7   61.4
 125   12:40   67.6    48    4.7   109     12.7     0.00    1151     384    859.6   61.8
 125   12:50   68.4    46    5.4   127     10.3     0.00     894     383    859.6   62.2
 125   13:00   69.6    43    5.4   146      9.9     0.00     870     385    859.5   62.6
 125   13:10   68.2    44    4.4   152     10.1     0.00     619     371    859.5   62.9
 125   13:20   68.2    42    2.8   310      5.8     0.00     978     372    859.4   63.3
 125   13:30   68.6    41    4.2   336      7.6     0.00     951     376    859.3   63.6
 125   13:40   67.9    41    7.1   328     16.3     0.00    1004     381    859.2   63.8
 125   13:50   67.9    41    5.1   338     11.3     0.00     941     377    859.1   64.0
 125   14:00   69.3    38    4.6   280      9.2     0.00     997     375    859.0   64.2
 125   14:10   69.0    39    5.8   331     12.6     0.00     818     377    858.8   64.4
 125   14:20   69.6    37    3.1   321      8.0     0.00     694     370    858.8   64.6
 125   14:30   71.8    33    3.3   152      7.2     0.00     812     370    858.5   64.8
 125   14:40   70.8    34    5.7   296     10.5     0.00     681     371    858.5   65.0
 125   14:50   70.1    32    4.0     4     10.5     0.00     573     373    858.4   65.3
 125   15:00   69.2    33    3.6    28     11.8     0.00     160     368    858.4   65.5
 125   15:10   69.4    33    8.6    48     14.2     0.00     498     362    858.2   65.8
 125   15:20   70.3    33    6.2   345     11.9     0.00     431     364    858.2   66.0
 125   15:30   70.2    33    6.6    21     11.4     0.00     462     363    858.1   66.2
 125   15:40   71.0    33    5.9   319     11.9     0.00     597     368    858.1   66.3
 125   15:50   71.7    32    5.3    44     11.9     0.00     658     371    858.1   66.5
 125   16:00   72.3    32    5.4   326     10.8     0.00     687     386    858.0   66.6
 125   16:10   72.0    33    5.8   308     11.8     0.00     589     379    858.0   66.7
 125   16:20   72.0    32    6.3   343     10.8     0.00     548     370    858.0   66.8
 125   16:30   72.6    32    4.3   290      9.7     0.00     474     378    858.0   66.9
 125   16:40   72.5    32    5.6   272     10.6     0.00     386     365    858.0   67.0
 125   16:50   72.0    32    6.4   321     10.6     0.00     411     364    858.0   67.1
 125   17:00   72.2    32    5.5   311      9.5     0.00     375     364    858.0   67.3
 125   17:10   72.5    30    3.8   312      7.2     0.00     339     359    858.0   67.4
 125   17:20   72.2    30    4.1   355      8.1     0.00     301     360    858.0   67.5
 125   17:30   72.9    30    4.3   272      8.6     0.00     264     359    858.0   67.5
 125   17:40   72.2    32    4.9   266      9.6     0.00     231     359    857.9   67.6
 125   17:50   72.6    32    3.6   268      7.1     0.00     160     356    857.9   67.6
 125   18:00   71.9    33    3.5   247      6.1     0.00      67     355    858.0   67.6
 125   18:10   71.2    33    3.6   272      6.1     0.00     126     353    858.0   67.6
 125   18:20   71.1    34    3.9   270      6.9     0.00     104     354    858.1   67.6
 125   18:30   70.6    36    3.8   300      7.4     0.00      46     355    858.1   67.5
 125   18:40   69.2    38    4.1   282      6.8     0.00      18     352    858.3   67.4
 125   18:50   68.5    38    4.1   284      8.5     0.00      11     354    858.4   67.3
 125   19:00   67.7    39    4.5   300      8.4     0.00       5     360    858.5   67.2
 125   19:10   67.1    40    4.5   294      9.0     0.00       2     354    858.5   67.1
 125   19:20   66.8    42    3.0   304      5.2     0.00       0     377    858.6   66.9
 125   19:30   66.7    42    2.7   304      5.1     0.00       0     385    858.7   66.8
 125   19:40   66.7    41    2.7   318      5.0     0.00       0     388    858.9   66.6
 125   19:50   66.3    41    0.8    11      2.3     0.00       0     387    859.0   66.5
 125   20:00   66.4    41    4.7    17      8.2     0.00       0     386    859.3   66.3
 125   20:10   66.9    41    7.0    28     10.5     0.00       0     390    859.6   66.2
 125   20:20   66.3    43    7.2   343     10.8     0.00       0     389    859.7   66.0
 125   20:30   66.0    44    5.4   330      8.4     0.00       0     380    859.7   65.9
 125   20:40   65.6    45    3.3   337      6.2     0.00       0     371    859.8   65.7
 125   20:50   65.4    43    2.8   353      6.2     0.00       0     360    859.9   65.6
 125   21:00   65.2    42    2.7   351      5.8     0.00       0     351    860.1   65.5
 125   21:10   64.8    42    2.6    20      5.4     0.00       0     346    860.2   65.3
 125   21:20   64.0    44    2.7    79      4.7     0.00       0     339    860.4   65.2
 125   21:30   64.0    44    1.6    79      3.3     0.00       0     333    860.5   65.1
 125   21:40   63.0    47    1.9    93      3.7     0.00       0     331    860.6   64.9
 125   21:50   62.2    49    2.8    79      5.0     0.00       0     328    860.8   64.8
 125   22:00   61.5    50    0.9    60      2.4     0.00       0     330    860.9   64.7
 125   22:10   59.9    55    2.4   248      4.6     0.00       0     328    861.2   64.5
 125   22:20   60.1    53    2.6   278      4.9     0.00       0     328    861.2   64.4
 125   22:30   60.5    52    3.1   273      6.1     0.00       0     326    861.4   64.2
 125   22:40   60.1    54    3.7   260      7.0     0.00       0     323    861.4   64.1
 125   22:50   59.8    56    4.2   233      7.8     0.00       0     326    861.6   63.9
 125   23:00   59.2    58    2.2   216      4.1     0.00       0     326    861.6   63.8
 125   23:10   58.6    59    1.9    97      3.4     0.00       0     324    861.7   63.6
 125   23:20   57.3    62    1.9   314      2.6     0.00       0     321    861.8   63.4
 125   23:30   55.3    66    2.1   315      3.6     0.00       0     322    861.9   63.3
 125   23:40   54.3    68    2.0   268      4.0     0.00       0     320    862.0   63.1
 125   23:50   54.3    68    1.7   222      3.7     0.00       0     319    862.0   63.0
 126    0:00   54.0    70    1.4   254      3.5     0.00       0     317    862.2   62.8
 126    0:10   53.3    71    1.1   304      2.8     0.00       0     317    862.3   62.7
 126    0:20   53.7    70    2.2   334      3.9     0.00       0     329    862.3   62.5
 126    0:30   52.9    73    2.3   338      4.7     0.00       0     342    862.4   62.4
 126    0:40   53.1    74    1.7    22      4.0     0.00       0     325    862.4   62.2
 126    0:50   52.8    74    1.3   302      3.4     0.00       0     314    862.5   62.1
 126    1:00   52.6    75    1.5   310      2.9     0.00       0     313    862.5   61.9
 126    1:10   51.3    78    3.3   336      5.8     0.00       0     314    862.6   61.8
 126    1:20   51.2    79    2.1   343      4.6     0.00       0     311    862.6   61.7
 126    1:30   51.1    79    1.0   251      2.6     0.00       0     309    862.7   61.5
 126    1:40   50.9    79    1.4   302      4.0     0.00       0     307    862.8   61.4
 126    1:50   50.5    80    1.3   329      3.9     0.00       0     309    862.9   61.3

Return to Reno (UNR), Nevada graphs page.


Western Regional Climate Center,wrcc@dri.edu